West Palm Beach, FL

12:31 PM EDT on August 04, 2015 (GMT -0400)
PCC Golf - Zaretsky Law Group - West Palm Beach | | Change Station
CLOSE
Current Station
Personal Weather Station
Location: West Palm Beach, FL
Elevation: 60 ft
Nearby Weather Stations

Elev 60 ft 26.73 °N, 80.08 °W | Updated 1 minute ago

Scattered Clouds
Scattered Clouds
88.0 °F
Feels Like 101 °F
N
5.0
Wind Variable Wind from ENE
Gusts 8.0 mph

Today
High -- | Low -- °F
--% Chance of Precip.
Yesterday
High -- | Low -- °F
Precip. -- in
6:46 AM 8:05 PM
Waning Gibbous, 76% visible
Pressure 30.08 in
Visibility 10.0 miles
Clouds Scattered Clouds 3300 ft
Scattered Clouds 4900 ft
Scattered Clouds 7500 ft
Heat Index 101 °F
Dew Point 77 °F
Humidity 71%
Rainfall 0.00 in
Snow Depth Not available.
UV 11 out of 12
Pollen 3.40 out of 12
Air Quality Not available.
Flu Activity Not available.
METAR KPBI 041553Z VRB03KT 10SM SCT033 SCT049 SCT075 31/23 A3008 RMK AO2 SLP185 CB DSNT NE E SE T03060228

More Conditions Fewer Conditions

Pressure 30.08 in
Visibility 10.0 miles
Clouds Scattered Clouds 3300 ft
Scattered Clouds 4900 ft
Scattered Clouds 7500 ft
Heat Index 101 °F
Dew Point 77 °F
Humidity 71%
Rainfall 0.00 in
Snow Depth Not available.
UV 11 out of 12
Pollen 3.40 out of 12
Air Quality Not available.
Flu Activity Not available.
METAR KPBI 041553Z VRB03KT 10SM SCT033 SCT049 SCT075 31/23 A3008 RMK AO2 SLP185 CB DSNT NE E SE T03060228

More Conditions Fewer Conditions

Nowcast | as of 12:30 PM EDT on August 4, 2015

Scattered showers and a few thunderstorms will develop along the east and West Coast sea breezes this afternoon and move slowly to the north at around 5 mph. The strongest storms will produce frequent lightning strikes, brief heavy rainfall and gusty winds to 40 mph. The storms will become more numerous by mid afternoon over the interior areas. A few showers will also move north across the Atlantic waters.

×

10-Day Weather Forecast

×

Almanac

Astronomy

Aug. 04, 2015 Rise Set
Actual Time
Civil Twilight
Nautical Twilight
Astronomical Twilight
Moon
Length of Visible Light
Length of Day
Tomorrow will be .
, % of the Moon is Illuminated

Today's Extremes

State Highs State Lows

Community

WunderPhotos

Upload Photos

1,843,919 photos uploaded!

WunderBlogs® & News

Nearby

Air Quality

  Air Quality AQ Index Pollutant
Not available.

Snow Depth

Station Depth Elevation

Earthquake Activity

City Distance Mag. Time & Date
Minimum magnitude displayed is 2.5.

Coastal Water Temperatures

Place Temperature

Stations

Nearby Weather Stations

Station Location Temp. Windchill Dew Point Humidity Wind Precip. Elev Updated Type